Time;durP1;ratioP1;P1;durP2;ratioP2;P2;SDS_P1;SDS_P2;PMS_P1;PMS_P2;Temp;Humidity;BMP_temperature;BMP_pressure;BME280_temperature;BME280_humidity;BME280_pressure;Samples;Min_cycle;Max_cycle;Signal;HPM_P1;HPM_P2
2023/08/16 00:01:42;;;;;;;10.18;2.40;;;;;;;24.35;54.34;100381.84;10458424;28;20115;-74
2023/08/16 00:06:43;;;;;;;11.20;2.40;;;;;;;24.54;54.50;100433.06;10458705;28;20091;-74
2023/08/16 00:11:43;;;;;;;18.27;2.65;;;;;;;24.37;55.00;100425.00;10458676;28;20076;-74
2023/08/16 00:16:44;;;;;;;25.88;3.83;;;;;;;23.84;55.74;100353.38;10458193;28;20419;-74
2023/08/16 00:21:45;;;;;;;10.27;2.40;;;;;;;24.25;56.02;100421.63;10458145;28;20132;-74
2023/08/16 00:26:46;;;;;;;20.10;3.08;;;;;;;24.30;56.49;100424.41;10458155;28;20516;-74
2023/08/16 00:31:47;;;;;;;15.60;2.47;;;;;;;24.01;55.73;100391.28;10457164;28;20049;-74
2023/08/16 00:36:47;;;;;;;13.27;2.55;;;;;;;24.26;55.53;100431.41;10457387;28;20135;-74
2023/08/16 00:41:48;;;;;;;11.10;2.20;;;;;;;24.28;55.68;100432.78;10457759;28;20072;-74
2023/08/16 00:46:49;;;;;;;19.85;2.83;;;;;;;24.12;55.09;100412.84;10457107;28;20075;-74
2023/08/16 00:51:50;;;;;;;16.65;2.22;;;;;;;24.10;55.11;100422.31;10457093;28;20084;-74
2023/08/16 00:56:51;;;;;;;18.02;2.80;;;;;;;23.94;56.19;100429.47;10456345;28;20048;-75
2023/08/16 01:01:53;;;;;;;12.77;2.65;;;;;;;23.76;57.34;100430.63;10456974;28;20033;-74
2023/08/16 01:06:57;;;;;;;20.25;2.67;;;;;;;23.72;57.43;100426.75;10454998;28;20056;-74
2023/08/16 01:12:15;;;;;;;11.40;2.83;;;;;;;22.75;56.82;100271.00;10455714;28;20056;-74
2023/08/16 01:17:17;;;;;;;20.55;3.03;;;;;;;23.56;58.07;100428.44;10455967;28;20506;-74
2023/08/16 01:22:26;;;;;;;261.15;14.25;;;;;;;23.47;59.23;100428.06;10455790;28;20044;-74
2023/08/16 01:27:28;;;;;;;86.68;6.30;;;;;;;23.33;59.24;100417.81;10455757;28;20558;-74
2023/08/16 01:32:29;;;;;;;35.83;3.67;;;;;;;23.26;59.71;100406.34;10456578;28;20590;-74
2023/08/16 01:37:30;;;;;;;11.98;2.75;;;;;;;23.27;59.35;100421.53;10455261;28;20126;-74
2023/08/16 01:42:35;;;;;;;143.15;10.45;;;;;;;22.47;61.11;100331.53;10454651;28;20049;-74
2023/08/16 01:47:37;;;;;;;18.25;2.80;;;;;;;22.89;59.67;100396.88;10454990;28;20032;-74
2023/08/16 01:52:39;;;;;;;27.35;4.35;;;;;;;22.91;60.79;100412.88;10454985;28;20044;-74
2023/08/16 01:57:40;;;;;;;15.23;2.80;;;;;;;23.02;60.36;100436.38;10454453;28;20484;-74
2023/08/16 02:02:41;;;;;;;26.00;3.20;;;;;;;23.07;60.53;100431.03;10454069;28;20044;-74
2023/08/16 02:07:41;;;;;;;27.48;3.33;;;;;;;23.08;61.29;100415.59;10454697;28;20057;-74
2023/08/16 02:12:42;;;;;;;21.98;5.72;;;;;;;22.73;62.02;100371.44;10457794;28;20040;-77
2023/08/16 02:17:43;;;;;;;41.15;7.20;;;;;;;23.12;62.38;100436.50;10476952;28;20492;-75
2023/08/16 02:22:44;;;;;;;25.80;6.70;;;;;;;23.14;63.09;100438.97;10476516;28;20040;-75
2023/08/16 02:27:44;;;;;;;21.60;4.95;;;;;;;23.10;63.45;100432.44;10495015;28;20048;-75
2023/08/16 02:32:45;;;;;;;48.95;6.68;;;;;;;23.21;64.61;100454.00;10485556;28;20048;-75
2023/08/16 02:37:46;;;;;;;103.25;9.00;;;;;;;22.30;65.35;100315.28;10454247;28;20033;-75
2023/08/16 02:42:49;;;;;;;29.90;4.20;;;;;;;22.92;65.21;100441.59;10453181;28;20041;-75
2023/08/16 02:47:49;;;;;;;58.03;5.37;;;;;;;22.97;65.40;100458.81;10456727;28;20057;-75
2023/08/16 02:52:50;;;;;;;46.60;6.00;;;;;;;23.06;65.76;100456.47;10460651;28;20036;-73
2023/08/16 02:57:52;;;;;;;33.38;4.05;;;;;;;23.26;65.39;100453.25;10461011;28;20045;-76
2023/08/16 03:02:53;;;;;;;11.77;2.80;;;;;;;23.43;63.68;100442.38;10471812;28;20524;-75
2023/08/16 03:07:54;;;;;;;23.15;10.57;;;;;;;23.54;62.68;100440.59;10461490;28;20056;-75
2023/08/16 03:12:55;;;;;;;50.50;8.13;;;;;;;23.57;62.03;100400.28;10460374;28;20048;-75
2023/08/16 03:17:56;;;;;;;12.65;4.38;;;;;;;24.45;60.96;100451.72;10458872;28;20087;-75
2023/08/16 03:22:56;;;;;;;13.25;2.70;;;;;;;24.35;61.20;100440.72;10460980;28;20087;-74
2023/08/16 03:27:57;;;;;;;31.73;3.60;;;;;;;24.35;62.53;100455.16;10460281;28;20043;-74
2023/08/16 03:32:58;;;;;;;19.00;2.92;;;;;;;24.49;61.67;100454.75;10460224;28;20536;-75
2023/08/16 03:37:59;;;;;;;23.00;3.72;;;;;;;24.59;62.38;100454.84;10458724;28;20044;-75
2023/08/16 03:42:59;;;;;;;24.73;2.75;;;;;;;24.70;62.39;100455.75;10459985;28;20041;-75
2023/08/16 03:48:02;;;;;;;11.85;4.18;;;;;;;24.94;61.66;100469.78;10459489;28;20044;-74
2023/08/16 03:53:03;;;;;;;7.73;2.60;;;;;;;24.98;60.11;100370.38;10466959;28;20069;-74
2023/08/16 03:58:04;;;;;;;7.90;2.35;;;;;;;26.54;58.25;100457.50;10484340;28;20041;-74
2023/08/16 04:03:05;;;;;;;14.00;4.25;;;;;;;27.89;55.10;100478.84;10477517;28;20044;-75
2023/08/16 04:08:06;;;;;;;10.55;2.25;;;;;;;29.27;49.73;100480.59;10474258;28;20526;-77
2023/08/16 04:13:07;;;;;;;12.80;2.47;;;;;;;29.31;47.78;100413.25;10478402;28;20071;-78
2023/08/16 04:18:08;;;;;;;20.38;2.67;;;;;;;29.06;47.15;100425.28;10468770;28;20084;-77
2023/08/16 04:23:08;;;;;;;12.77;2.70;;;;;;;28.59;47.51;100476.78;10500077;28;20040;-77
2023/08/16 04:28:09;;;;;;;19.63;3.17;;;;;;;27.84;47.63;100372.41;10497998;28;20055;-77
2023/08/16 04:33:10;;;;;;;15.23;2.58;;;;;;;28.22;47.83;100433.59;10478420;28;20082;-77
2023/08/16 04:38:10;;;;;;;16.30;3.63;;;;;;;28.32;47.31;100460.03;10475109;28;20049;-77
2023/08/16 04:43:11;;;;;;;17.10;4.10;;;;;;;28.27;46.79;100440.94;10476330;28;20407;-74
2023/08/16 04:48:12;;;;;;;40.90;4.07;;;;;;;28.47;47.23;100459.94;10479244;28;20450;-72
2023/08/16 04:53:13;;;;;;;37.45;4.47;;;;;;;28.12;48.30;100389.94;10456952;28;20045;-73
2023/08/16 04:58:13;;;;;;;11.18;2.25;;;;;;;28.54;47.86;100441.31;10456970;28;20032;-73
2023/08/16 05:03:14;;;;;;;13.13;2.53;;;;;;;29.30;46.57;100458.13;10456644;28;20033;-73
2023/08/16 05:08:15;;;;;;;15.07;3.63;;;;;;;29.52;45.52;100436.53;10457120;28;20068;-73
2023/08/16 05:13:17;;;;;;;6.38;2.60;;;;;;;30.02;44.44;100431.53;10455078;28;20044;-74
2023/08/16 05:18:18;;;;;;;14.70;3.63;;;;;;;30.71;43.85;100445.53;10456366;28;20281;-74
2023/08/16 05:23:19;;;;;;;23.35;3.97;;;;;;;30.81;42.28;100386.16;10455351;28;20375;-73
2023/08/16 05:28:19;;;;;;;17.08;2.85;;;;;;;31.26;42.34;100436.66;10454988;28;20040;-74
2023/08/16 05:33:20;;;;;;;9.48;2.70;;;;;;;30.79;42.86;100424.06;10456302;28;20036;-73
2023/08/16 05:38:22;;;;;;;10.10;2.38;;;;;;;30.63;43.47;100446.25;10454802;28;20025;-73
2023/08/16 05:43:23;;;;;;;13.77;2.93;;;;;;;30.81;43.11;100452.84;10456104;28;20071;-74
2023/08/16 05:48:24;;;;;;;22.80;3.42;;;;;;;31.09;42.30;100403.50;10455349;28;20076;-74
2023/08/16 05:53:24;;;;;;;23.70;3.17;;;;;;;31.76;41.52;100442.22;10455272;28;20060;-73
2023/08/16 05:58:25;;;;;;;11.88;2.58;;;;;;;31.78;40.08;100417.19;10454977;28;20056;-73
2023/08/16 06:03:26;;;;;;;10.50;2.55;;;;;;;32.18;39.80;100447.66;10454563;28;20048;-73
2023/08/16 06:08:27;;;;;;;14.07;2.53;;;;;;;32.58;38.67;100426.66;10454669;28;20089;-73
2023/08/16 06:13:27;;;;;;;9.63;2.58;;;;;;;32.78;38.26;100441.78;10453919;28;20033;-73
2023/08/16 06:18:28;;;;;;;28.88;3.50;;;;;;;32.97;38.72;100425.09;10455042;28;20101;-73
2023/08/16 06:23:29;;;;;;;8.48;2.00;;;;;;;32.74;38.45;100400.34;10460433;28;20029;-73
2023/08/16 06:28:29;;;;;;;14.10;2.38;;;;;;;33.22;37.17;100431.03;10462300;28;20040;-73
2023/08/16 06:33:30;;;;;;;9.43;2.47;;;;;;;33.40;35.31;100425.28;10462016;28;20040;-73
2023/08/16 06:38:32;;;;;;;25.73;2.65;;;;;;;33.66;34.74;100412.75;10461850;28;20033;-73
2023/08/16 06:43:32;;;;;;;5.25;1.60;;;;;;;33.77;33.44;100423.09;10461277;28;20040;-73
2023/08/16 06:48:33;;;;;;;13.18;2.15;;;;;;;33.76;32.78;100415.97;10462719;28;20043;-73
2023/08/16 06:53:34;;;;;;;7.53;1.73;;;;;;;33.25;32.00;100326.59;10462673;28;20491;-73
2023/08/16 06:58:35;;;;;;;8.07;1.80;;;;;;;33.51;32.64;100351.47;10461760;28;20032;-72
2023/08/16 07:03:37;;;;;;;8.38;2.00;;;;;;;33.68;31.91;100391.19;10461203;28;20045;-73
2023/08/16 07:08:37;;;;;;;8.70;2.10;;;;;;;33.61;32.28;100339.31;10461157;28;20094;-73
2023/08/16 07:13:38;;;;;;;13.50;2.08;;;;;;;34.03;32.19;100387.34;10461209;28;20101;-73
2023/08/16 07:18:39;;;;;;;8.40;1.85;;;;;;;34.24;31.37;100387.47;10460284;28;20033;-73
2023/08/16 07:23:39;;;;;;;9.07;2.05;;;;;;;34.40;31.95;100379.50;10460746;28;20025;-73
2023/08/16 07:28:40;;;;;;;8.30;1.90;;;;;;;34.43;31.72;100333.91;10460346;28;20039;-73
2023/08/16 07:33:41;;;;;;;11.02;2.10;;;;;;;34.05;31.24;100313.41;10459783;28;20483;-74
2023/08/16 07:38:42;;;;;;;6.88;2.00;;;;;;;34.15;30.55;100352.78;10459050;28;20155;-73
2023/08/16 07:43:42;;;;;;;4.85;1.60;;;;;;;34.13;29.85;100305.44;10459482;28;20036;-73
2023/08/16 07:48:43;;;;;;;6.95;1.80;;;;;;;34.08;29.91;100322.97;10460265;28;20036;-73
2023/08/16 07:53:44;;;;;;;7.70;1.73;;;;;;;34.28;29.39;100347.13;10459295;28;20039;-73
2023/08/16 07:58:45;;;;;;;7.40;1.80;;;;;;;34.53;29.24;100337.13;10459640;28;20037;-72
2023/08/16 08:03:46;;;;;;;7.00;2.22;;;;;;;34.67;29.24;100352.69;10458798;28;20045;-73
2023/08/16 08:08:47;;;;;;;7.10;1.67;;;;;;;34.13;29.13;100253.88;10459018;28;20047;-72
2023/08/16 08:13:48;;;;;;;9.88;2.10;;;;;;;34.89;29.76;100351.66;10458377;28;20389;-73
2023/08/16 08:18:48;;;;;;;7.32;1.50;;;;;;;35.29;28.60;100354.88;10457745;28;20036;-72
2023/08/16 08:23:49;;;;;;;12.68;2.28;;;;;;;35.11;28.38;100328.50;10458424;28;20491;-75
2023/08/16 08:28:51;;;;;;;10.23;1.80;;;;;;;34.92;28.60;100340.75;10458201;28;20033;-73
2023/08/16 08:33:52;;;;;;;;;;;;;;;35.60;27.65;100348.19;10458475;28;20033;-74
2023/08/16 08:38:52;;;;;;;11.00;1.90;;;;;;;35.28;28.16;100333.13;10457640;28;20260;-72
2023/08/16 08:43:54;;;;;;;8.02;2.05;;;;;;;35.41;27.73;100327.31;10461030;28;20052;-72
2023/08/16 08:49:01;;;;;;;6.15;1.95;;;;;;;35.63;28.35;100328.16;10488948;28;20053;-73
2023/08/16 08:54:02;;;;;;;7.63;1.90;;;;;;;35.80;28.62;100311.44;10484858;28;20037;-73
2023/08/16 08:59:03;;;;;;;7.53;2.58;;;;;;;35.87;28.17;100313.69;10484747;28;20400;-73
2023/08/16 09:04:05;;;;;;;6.20;2.10;;;;;;;35.75;27.46;100325.50;10482798;28;20056;-73
2023/08/16 09:09:07;;;;;;;7.38;1.80;;;;;;;35.87;27.57;100302.63;10474921;28;20064;-73
2023/08/16 09:14:09;;;;;;;18.45;2.50;;;;;;;36.21;27.52;100317.28;10475793;28;20043;-73
2023/08/16 09:19:13;;;;;;;9.82;2.17;;;;;;;36.25;27.38;100304.38;10474964;28;20038;-74
2023/08/16 09:24:14;;;;;;;14.45;2.45;;;;;;;36.20;27.26;100305.41;10482463;28;20061;-73
2023/08/16 09:29:17;;;;;;;6.97;2.00;;;;;;;36.05;26.06;100279.22;10472880;28;20068;-73
2023/08/16 09:34:24;;;;;;;11.20;2.10;;;;;;;35.69;26.65;100240.34;10474684;28;20033;-73
2023/08/16 09:39:27;;;;;;;9.68;1.90;;;;;;;35.48;27.12;100243.94;10485078;28;20036;-73
2023/08/16 09:44:29;;;;;;;11.23;2.65;;;;;;;35.85;27.76;100231.09;10474046;28;20052;-73
2023/08/16 09:49:32;;;;;;;6.75;2.10;;;;;;;36.26;26.72;100287.44;10480736;28;20036;-73
2023/08/16 09:54:33;;;;;;;7.32;2.38;;;;;;;36.24;26.92;100289.75;10474278;28;20041;-72
2023/08/16 09:59:35;;;;;;;6.68;1.80;;;;;;;36.44;26.55;100281.69;10478846;28;20542;-73
2023/08/16 10:04:36;;;;;;;20.77;2.70;;;;;;;36.42;26.27;100275.72;10472685;28;20411;-73
2023/08/16 10:09:41;;;;;;;14.82;3.03;;;;;;;36.48;26.12;100271.56;10484507;28;20125;-74
2023/08/16 10:14:42;;;;;;;19.17;2.55;;;;;;;36.54;26.19;100264.69;10495445;28;20128;-74
2023/08/16 10:19:47;;;;;;;16.02;2.25;;;;;;;36.08;26.39;100170.69;10496112;28;20447;-73
2023/08/16 10:24:50;;;;;;;11.13;2.10;;;;;;;36.36;26.23;100217.03;10481614;28;20079;-73
2023/08/16 10:29:59;;;;;;;9.38;2.28;;;;;;;36.73;26.82;100255.81;10453622;28;20570;-73
2023/08/16 10:35:00;;;;;;;8.30;2.08;;;;;;;36.71;25.98;100244.28;10453879;28;20215;-73
2023/08/16 10:40:00;;;;;;;8.10;2.03;;;;;;;36.73;25.94;100251.06;10453896;28;20120;-73
2023/08/16 10:45:01;;;;;;;7.90;2.17;;;;;;;36.74;26.21;100230.56;10454212;28;20471;-73
2023/08/16 10:50:03;;;;;;;9.75;2.28;;;;;;;36.99;26.10;100245.19;10453785;28;20040;-73
2023/08/16 10:55:04;;;;;;;;;;;;;;;37.23;25.80;100244.34;10453622;28;20044;-73
2023/08/16 11:00:07;;;;;;;6.25;2.00;;;;;;;36.96;26.31;100236.75;10453146;28;19923;-72
2023/08/16 11:05:19;;;;;;;29.88;3.38;;;;;;;36.54;27.14;100226.75;10453620;28;20060;-73
2023/08/16 11:10:19;;;;;;;7.18;2.40;;;;;;;36.49;26.40;100234.44;10458701;28;20044;-73
2023/08/16 11:15:20;;;;;;;35.47;3.37;;;;;;;36.48;26.78;100205.97;10461317;28;20037;-73
2023/08/16 11:20:24;;;;;;;13.23;2.63;;;;;;;36.88;26.41;100223.84;10460878;28;20091;-73
2023/08/16 11:25:35;;;;;;;7.80;2.22;;;;;;;37.03;26.00;100208.50;10465235;28;20435;-74
2023/08/16 11:30:35;;;;;;;14.13;2.65;;;;;;;36.75;26.70;100218.31;10460900;28;20048;-74
2023/08/16 11:35:36;;;;;;;23.77;2.80;;;;;;;37.08;26.16;100209.06;10459591;28;20037;-73
2023/08/16 11:40:40;;;;;;;31.50;3.47;;;;;;;36.95;27.04;100201.94;10474433;28;20041;-74
2023/08/16 11:45:40;;;;;;;7.82;2.25;;;;;;;36.68;26.79;100184.09;10472228;28;20078;-73
2023/08/16 11:50:42;;;;;;;9.77;2.50;;;;;;;36.22;26.46;100153.75;10478538;28;20381;-75
2023/08/16 11:55:55;;;;;;;10.73;2.60;;;;;;;35.78;26.74;100149.88;10467968;28;20045;-75
2023/08/16 12:01:02;;;;;;;14.02;2.78;;;;;;;35.85;27.97;100195.16;10462072;28;20440;-74
2023/08/16 12:06:09;;;;;;;12.88;2.72;;;;;;;36.18;27.37;100193.53;10482768;28;20052;-74
2023/08/16 12:11:09;;;;;;;10.85;2.30;;;;;;;35.92;27.10;100127.44;10499615;28;20048;-74
2023/08/16 12:16:10;;;;;;;11.15;2.28;;;;;;;36.65;26.89;100188.38;10500588;28;20040;-74
2023/08/16 12:21:11;;;;;;;10.60;2.42;;;;;;;36.65;26.56;100173.72;10499971;28;20040;-73
2023/08/16 12:26:14;;;;;;;12.35;2.53;;;;;;;36.51;26.56;100188.72;10499329;28;20044;-73
2023/08/16 12:31:14;;;;;;;22.00;3.13;;;;;;;36.23;27.09;100171.16;10489100;28;20045;-74
2023/08/16 12:36:15;;;;;;;6.90;2.67;;;;;;;36.11;26.64;100166.44;10474770;28;20049;-74
2023/08/16 12:41:16;;;;;;;11.27;2.50;;;;;;;36.45;26.09;100145.81;10477811;28;20036;-74
2023/08/16 12:46:17;;;;;;;10.15;2.30;;;;;;;36.47;26.84;100142.69;10476945;28;20116;-74
2023/08/16 12:51:17;;;;;;;221.60;21.65;;;;;;;36.91;26.51;100140.88;10483929;28;20183;-73
2023/08/16 12:56:18;;;;;;;19.35;4.03;;;;;;;36.84;25.77;100145.44;10476536;28;20040;-74
2023/08/16 13:01:19;;;;;;;15.98;2.42;;;;;;;36.66;26.18;100142.13;10475989;28;20051;-73
2023/08/16 13:06:20;;;;;;;13.13;3.13;;;;;;;36.23;26.23;100060.53;10483382;28;20052;-74
2023/08/16 13:11:21;;;;;;;32.70;3.60;;;;;;;36.02;26.67;100082.75;10482701;28;20037;-74
2023/08/16 13:16:21;;;;;;;22.00;3.72;;;;;;;35.78;26.88;100116.72;10482195;28;20033;-74
2023/08/16 13:21:22;;;;;;;19.38;3.30;;;;;;;35.95;26.75;100132.28;10476738;28;20036;-74
2023/08/16 13:26:23;;;;;;;25.13;3.13;;;;;;;35.57;26.68;100059.59;10474532;28;20047;-75
2023/08/16 13:31:24;;;;;;;12.23;2.92;;;;;;;35.62;27.48;100114.63;10480699;28;20050;-74
2023/08/16 13:36:25;;;;;;;32.65;4.03;;;;;;;35.42;28.32;100109.91;10481982;28;20042;-73
2023/08/16 13:41:25;;;;;;;159.18;15.13;;;;;;;35.40;27.83;100115.81;10495774;28;20094;-74
2023/08/16 13:46:27;;;;;;;38.88;4.35;;;;;;;35.67;27.98;100128.22;10495234;28;20044;-74
2023/08/16 13:51:28;;;;;;;33.42;4.32;;;;;;;34.97;28.71;100016.81;10484888;28;20638;-75
2023/08/16 13:56:30;;;;;;;17.35;3.78;;;;;;;35.38;28.98;100125.56;10482280;28;20123;-74
2023/08/16 14:01:31;;;;;;;44.22;5.05;;;;;;;35.29;28.86;100089.75;10472320;28;20033;-74
2023/08/16 14:06:32;;;;;;;11.80;2.67;;;;;;;35.16;29.06;100101.91;10482292;28;20060;-73
2023/08/16 14:11:32;;;;;;;12.90;2.72;;;;;;;34.96;29.46;100098.81;10487760;28;20048;-75
2023/08/16 14:16:33;;;;;;;35.28;4.68;;;;;;;34.39;30.00;100044.22;10495476;28;20036;-75
2023/08/16 14:21:35;;;;;;;22.75;3.33;;;;;;;34.70;30.30;100101.78;10495996;28;20541;-75
2023/08/16 14:26:35;;;;;;;27.95;3.67;;;;;;;34.37;29.78;100076.81;10495091;28;20044;-75
2023/08/16 14:31:36;;;;;;;66.03;5.82;;;;;;;34.36;30.77;100099.22;10491097;28;20052;-74
2023/08/16 14:36:37;;;;;;;487.92;44.72;;;;;;;34.22;32.17;100103.03;10473070;28;20037;-74
2023/08/16 14:41:38;;;;;;;140.95;14.23;;;;;;;34.16;32.35;100109.06;10453395;28;20041;-74
2023/08/16 14:46:38;;;;;;;26.92;4.15;;;;;;;34.08;31.55;100102.47;10496077;28;20052;-74
2023/08/16 14:51:39;;;;;;;36.25;4.32;;;;;;;33.99;30.84;100104.44;10502751;28;20123;-74
2023/08/16 14:56:40;;;;;;;451.50;40.35;;;;;;;34.11;31.26;100101.00;10500549;28;20065;-74
2023/08/16 15:01:41;;;;;;;55.70;6.60;;;;;;;33.40;30.43;99997.69;10461520;28;20095;-74
2023/08/16 15:06:42;;;;;;;28.17;4.85;;;;;;;34.00;30.67;100098.56;10460772;28;20139;-74
2023/08/16 15:11:42;;;;;;;24.88;4.00;;;;;;;33.93;30.86;100098.28;10461108;28;20580;-74
2023/08/16 15:16:43;;;;;;;18.52;2.80;;;;;;;33.74;29.90;100104.19;10461392;28;20033;-75
2023/08/16 15:21:44;;;;;;;15.05;2.83;;;;;;;33.50;29.96;100098.38;10459612;28;20045;-74
2023/08/16 15:26:45;;;;;;;18.85;2.72;;;;;;;33.35;29.83;100099.72;10492875;28;20037;-74
2023/08/16 15:31:46;;;;;;;10.43;1.95;;;;;;;33.13;30.13;100098.78;10501910;28;20044;-74
2023/08/16 15:36:46;;;;;;;22.02;3.47;;;;;;;32.99;29.63;100102.84;10501329;28;20404;-75
2023/08/16 15:41:48;;;;;;;25.10;3.38;;;;;;;32.80;29.80;100090.19;10501682;28;20039;-73
2023/08/16 15:46:49;;;;;;;8.55;2.38;;;;;;;32.64;30.01;100103.63;10499456;28;20048;-69
2023/08/16 15:51:50;;;;;;;13.25;2.70;;;;;;;32.45;30.62;100103.09;10500440;28;20415;-67
2023/08/16 15:56:51;;;;;;;28.02;3.33;;;;;;;31.72;31.13;100031.22;10499552;28;20036;-72
2023/08/16 16:01:51;;;;;;;39.70;4.07;;;;;;;32.01;31.35;100104.84;10500383;28;20094;-72
2023/08/16 16:06:52;;;;;;;13.07;2.58;;;;;;;31.91;31.35;100111.44;10500353;28;20063;-72
2023/08/16 16:11:53;;;;;;;29.38;3.40;;;;;;;31.68;31.71;100113.41;10499682;28;20036;-72
2023/08/16 16:17:23;;;;;;;12.18;2.95;;;;;;;31.59;31.80;100126.25;10499587;28;20048;-72
2023/08/16 16:22:24;;;;;;;47.80;3.45;;;;;;;31.24;31.93;100109.56;10499195;28;20068;-72
2023/08/16 16:27:24;;;;;;;29.40;2.92;;;;;;;31.24;31.83;100126.03;10499449;28;20064;-72
2023/08/16 16:32:25;;;;;;;24.63;3.80;;;;;;;31.02;31.99;100117.75;10499459;28;20586;-72
2023/08/16 16:37:26;;;;;;;14.65;2.95;;;;;;;30.73;32.01;100097.00;10499067;28;20050;-72
2023/08/16 16:42:27;;;;;;;21.58;6.15;;;;;;;30.72;32.61;100120.03;10498767;28;20496;-72
2023/08/16 16:47:27;;;;;;;43.70;17.42;;;;;;;30.56;32.41;100116.03;10497423;28;20142;-73
2023/08/16 16:52:28;;;;;;;27.80;11.13;;;;;;;30.10;32.67;100081.34;10495670;28;20492;-72
2023/08/16 16:57:32;;;;;;;32.78;9.13;;;;;;;30.33;33.35;100153.50;10498690;28;20051;-72
2023/08/16 17:02:33;;;;;;;24.40;4.45;;;;;;;30.19;32.88;100151.56;10495313;28;20041;-72
2023/08/16 17:07:34;;;;;;;12.07;3.70;;;;;;;30.05;33.57;100152.66;10479277;28;20519;-73
2023/08/16 17:12:35;;;;;;;12.25;3.17;;;;;;;29.89;33.73;100169.38;10480699;28;20416;-72
2023/08/16 17:17:35;;;;;;;17.58;3.00;;;;;;;29.61;33.20;100137.53;10483288;28;20037;-73
2023/08/16 17:22:37;;;;;;;14.15;2.42;;;;;;;29.66;33.42;100153.91;10473731;28;20115;-73
2023/08/16 17:27:37;;;;;;;13.45;2.92;;;;;;;29.04;33.62;100080.16;10476079;28;20442;-73
2023/08/16 17:32:39;;;;;;;10.30;3.10;;;;;;;29.11;33.69;100102.50;10479213;28;20108;-73
2023/08/16 17:37:40;;;;;;;22.77;6.38;;;;;;;29.45;33.70;100162.41;10485591;28;20043;-73
2023/08/16 17:42:41;;;;;;;17.25;5.82;;;;;;;29.39;33.73;100166.34;10474539;28;20033;-73
2023/08/16 17:47:42;;;;;;;35.63;16.98;;;;;;;29.31;33.49;100154.13;10484985;28;20040;-73
2023/08/16 17:52:43;;;;;;;38.50;23.27;;;;;;;29.23;33.95;100159.50;10473717;28;20488;-73
2023/08/16 17:57:44;;;;;;;17.33;9.65;;;;;;;29.13;34.13;100153.03;10481367;28;20060;-73
2023/08/16 18:02:44;;;;;;;24.25;12.80;;;;;;;29.01;34.12;100133.50;10473983;28;20567;-73
2023/08/16 18:07:45;;;;;;;19.27;4.53;;;;;;;28.95;33.89;100144.81;10473481;28;20052;-73
2023/08/16 18:12:46;;;;;;;22.77;5.55;;;;;;;28.34;34.26;100051.59;10473624;28;20048;-73
2023/08/16 18:17:47;;;;;;;19.90;4.20;;;;;;;28.75;34.29;100138.53;10482367;28;20037;-74
2023/08/16 18:22:49;;;;;;;21.15;9.20;;;;;;;28.71;34.50;100139.41;10474768;28;20041;-73
2023/08/16 18:27:50;;;;;;;8.97;4.77;;;;;;;28.25;34.46;100064.28;10471835;28;20040;-73
2023/08/16 18:32:51;;;;;;;18.17;7.00;;;;;;;28.27;35.52;100080.38;10481091;28;20064;-73
2023/08/16 18:37:52;;;;;;;11.35;3.63;;;;;;;28.38;35.55;100117.38;10480921;28;20041;-74
2023/08/16 18:42:55;;;;;;;14.60;3.45;;;;;;;28.37;35.80;100135.69;10481744;28;20044;-73
2023/08/16 18:47:55;;;;;;;13.20;5.10;;;;;;;28.33;35.87;100120.16;10463460;28;20068;-72
2023/08/16 18:52:56;;;;;;;19.35;5.13;;;;;;;27.89;36.12;100061.16;10466529;28;20075;-73
2023/08/16 18:57:58;;;;;;;29.40;8.57;;;;;;;28.03;36.34;100100.31;10462473;28;20048;-73
2023/08/16 19:02:58;;;;;;;34.72;12.18;;;;;;;28.07;37.12;100120.47;10453265;28;20466;-73
2023/08/16 19:07:59;;;;;;;24.08;6.60;;;;;;;27.95;37.59;100129.06;10453969;28;20182;-73
2023/08/16 19:13:00;;;;;;;12.02;4.38;;;;;;;27.85;38.23;100118.25;10451589;28;20064;-73
2023/08/16 19:18:01;;;;;;;15.77;2.88;;;;;;;27.69;37.93;100095.72;10452867;28;20047;-74
2023/08/16 19:23:03;;;;;;;13.73;4.13;;;;;;;27.89;37.20;100113.03;10452100;28;20071;-74
2023/08/16 19:28:04;;;;;;;9.60;3.60;;;;;;;27.92;36.56;100118.72;10463897;28;20381;-73
2023/08/16 19:33:05;;;;;;;7.78;2.88;;;;;;;27.93;36.50;100109.41;10460312;28;20041;-74
2023/08/16 19:38:06;;;;;;;6.10;2.80;;;;;;;27.50;36.52;100051.16;10460286;28;20076;-74
2023/08/16 19:43:07;;;;;;;11.80;2.85;;;;;;;27.53;36.65;100073.22;10459441;28;20498;-74
2023/08/16 19:48:07;;;;;;;22.15;3.38;;;;;;;27.65;37.29;100097.41;10460886;28;20048;-74
2023/08/16 19:53:09;;;;;;;12.93;3.05;;;;;;;27.38;39.79;100089.75;10459670;28;20041;-74
2023/08/16 19:58:09;;;;;;;6.72;2.45;;;;;;;27.47;38.51;100103.56;10457682;28;20048;-74
2023/08/16 20:03:10;;;;;;;6.70;2.55;;;;;;;27.30;38.51;100084.88;10458576;28;20037;-73
2023/08/16 20:08:11;;;;;;;95.45;7.15;;;;;;;26.76;41.01;100053.91;10459656;28;20106;-73
2023/08/16 20:13:12;;;;;;;9.38;2.40;;;;;;;26.85;39.98;100084.91;10458272;28;20041;-73
2023/08/16 20:18:17;;;;;;;29.75;3.95;;;;;;;26.82;41.82;100088.19;10470156;28;20060;-73
2023/08/16 20:23:18;;;;;;;9.02;2.28;;;;;;;26.76;41.35;100072.16;10457937;28;20045;-73
2023/08/16 20:28:18;;;;;;;13.50;2.60;;;;;;;26.96;41.10;100095.75;10457694;28;20049;-73
2023/08/16 20:33:19;;;;;;;10.75;2.38;;;;;;;27.02;41.07;100091.91;10458257;28;20045;-73
2023/08/16 20:38:20;;;;;;;6.13;2.13;;;;;;;27.13;39.48;100098.06;10458349;28;20534;-73
2023/08/16 20:43:21;;;;;;;4.72;1.67;;;;;;;27.24;38.74;100089.56;10457139;28;20045;-74
2023/08/16 20:48:22;;;;;;;3.97;1.77;;;;;;;27.40;37.82;100090.28;10456837;28;20048;-74
2023/08/16 20:53:23;;;;;;;2.80;1.67;;;;;;;27.53;37.08;100084.13;10457942;28;20045;-73
2023/08/16 20:58:24;;;;;;;4.35;2.03;;;;;;;27.62;36.58;100076.16;10457003;28;20045;-73
2023/08/16 21:03:24;;;;;;;5.90;1.85;;;;;;;27.67;37.10;100084.28;10466811;28;20044;-74
2023/08/16 21:08:25;;;;;;;15.95;2.40;;;;;;;27.64;36.88;100065.78;10456911;28;20048;-73
2023/08/16 21:13:26;;;;;;;13.38;2.38;;;;;;;27.12;39.53;100042.75;10456105;28;20049;-73
2023/08/16 21:18:27;;;;;;;12.13;2.40;;;;;;;26.49;42.27;100053.50;10456856;28;20056;-73
2023/08/16 21:23:27;;;;;;;20.88;2.58;;;;;;;26.15;44.32;100073.28;10456550;28;20049;-73
2023/08/16 21:28:28;;;;;;;8.43;2.85;;;;;;;25.85;45.65;100066.00;10455529;28;20048;-73
2023/08/16 21:33:29;;;;;;;13.73;3.08;;;;;;;25.56;46.41;100058.41;10456716;28;20049;-73
2023/08/16 21:38:29;;;;;;;12.52;2.88;;;;;;;25.16;47.47;100029.34;10455545;28;20122;-73
2023/08/16 21:43:30;;;;;;;7.22;2.65;;;;;;;24.68;48.24;99972.53;10454120;28;20087;-73
2023/08/16 21:48:31;;;;;;;17.65;3.50;;;;;;;24.53;50.26;99970.63;10455200;28;20040;-74
2023/08/16 21:53:32;;;;;;;17.58;3.35;;;;;;;24.78;50.95;100045.88;10454550;28;20128;-74
2023/08/16 21:58:33;;;;;;;9.55;2.60;;;;;;;24.39;51.05;100034.63;10454222;28;20037;-73
2023/08/16 22:03:34;;;;;;;9.50;3.15;;;;;;;24.32;51.48;100062.03;10454646;28;20060;-73
2023/08/16 22:08:35;;;;;;;12.18;3.17;;;;;;;24.35;52.15;100041.66;10454102;28;20052;-73
2023/08/16 22:13:36;;;;;;;17.20;2.80;;;;;;;24.58;50.37;100046.63;10454372;28;20044;-74
2023/08/16 22:18:36;;;;;;;9.85;2.88;;;;;;;24.33;51.14;100036.50;10454347;28;20041;-73
2023/08/16 22:23:37;;;;;;;15.63;2.78;;;;;;;24.06;51.78;100025.00;10454380;28;20512;-73
2023/08/16 22:28:38;;;;;;;16.15;2.75;;;;;;;23.89;52.32;100014.34;10453655;28;20080;-73
2023/08/16 22:33:38;;;;;;;14.60;3.03;;;;;;;23.72;53.19;100035.41;10453714;28;20102;-73
2023/08/16 22:38:39;;;;;;;8.38;2.70;;;;;;;23.72;53.41;100040.81;10454282;28;20072;-73
2023/08/16 22:43:42;;;;;;;17.73;2.95;;;;;;;23.39;54.05;99993.94;10453408;28;20055;-73
2023/08/16 22:48:43;;;;;;;8.40;2.67;;;;;;;23.71;54.85;100050.03;10453490;28;20045;-73
2023/08/16 22:53:44;;;;;;;9.68;2.63;;;;;;;23.69;56.04;100061.09;10453663;28;20037;-73